sensor_id;sensor_type;location;lat;lon;timestamp;temperature;humidity
68378;DHT22;55322;48.146;11.516;2023-03-01T00:01:16;0.67;78.22
68378;DHT22;55322;48.146;11.516;2023-03-01T00:03:42;0.65;78.68
68378;DHT22;55322;48.146;11.516;2023-03-01T00:06:07;0.67;79.35
68378;DHT22;55322;48.146;11.516;2023-03-01T00:08:34;0.64;78.73
68378;DHT22;55322;48.146;11.516;2023-03-01T00:11:04;0.65;79.33
68378;DHT22;55322;48.146;11.516;2023-03-01T00:13:29;0.67;78.77
68378;DHT22;55322;48.146;11.516;2023-03-01T00:15:55;0.74;78.70
68378;DHT22;55322;48.146;11.516;2023-03-01T00:18:20;0.68;78.30
68378;DHT22;55322;48.146;11.516;2023-03-01T00:20:53;0.65;78.72
68378;DHT22;55322;48.146;11.516;2023-03-01T00:23:20;0.64;79.11
68378;DHT22;55322;48.146;11.516;2023-03-01T00:25:45;0.61;78.04
68378;DHT22;55322;48.146;11.516;2023-03-01T00:28:11;0.65;78.21
68378;DHT22;55322;48.146;11.516;2023-03-01T00:30:36;0.67;78.51
68378;DHT22;55322;48.146;11.516;2023-03-01T00:33:01;0.60;78.23
68378;DHT22;55322;48.146;11.516;2023-03-01T00:35:27;0.64;78.77
68378;DHT22;55322;48.146;11.516;2023-03-01T00:37:52;0.60;78.54
68378;DHT22;55322;48.146;11.516;2023-03-01T00:40:27;0.62;78.60
68378;DHT22;55322;48.146;11.516;2023-03-01T00:42:52;0.62;78.12
68378;DHT22;55322;48.146;11.516;2023-03-01T00:45:18;0.67;78.03
68378;DHT22;55322;48.146;11.516;2023-03-01T00:47:43;0.60;78.07
68378;DHT22;55322;48.146;11.516;2023-03-01T00:50:10;0.57;78.80
68378;DHT22;55322;48.146;11.516;2023-03-01T00:52:35;0.55;78.46
68378;DHT22;55322;48.146;11.516;2023-03-01T00:55:01;0.57;79.46
68378;DHT22;55322;48.146;11.516;2023-03-01T00:57:26;0.57;78.38
68378;DHT22;55322;48.146;11.516;2023-03-01T00:59:52;0.58;78.57
68378;DHT22;55322;48.146;11.516;2023-03-01T01:02:18;0.55;78.17
68378;DHT22;55322;48.146;11.516;2023-03-01T01:04:43;0.60;78.39
68378;DHT22;55322;48.146;11.516;2023-03-01T01:07:08;0.57;78.26
68378;DHT22;55322;48.146;11.516;2023-03-01T01:09:34;0.54;78.56
68378;DHT22;55322;48.146;11.516;2023-03-01T01:11:59;0.54;78.31
68378;DHT22;55322;48.146;11.516;2023-03-01T01:14:25;0.55;77.82
68378;DHT22;55322;48.146;11.516;2023-03-01T01:16:50;0.48;78.16
68378;DHT22;55322;48.146;11.516;2023-03-01T01:19:16;0.48;78.57
68378;DHT22;55322;48.146;11.516;2023-03-01T01:21:41;0.55;78.77
68378;DHT22;55322;48.146;11.516;2023-03-01T01:24:10;0.53;79.14
68378;DHT22;55322;48.146;11.516;2023-03-01T01:26:35;0.50;77.89
68378;DHT22;55322;48.146;11.516;2023-03-01T01:29:02;0.54;78.15
68378;DHT22;55322;48.146;11.516;2023-03-01T01:31:28;0.50;78.84
68378;DHT22;55322;48.146;11.516;2023-03-01T01:33:55;0.50;79.31
68378;DHT22;55322;48.146;11.516;2023-03-01T01:36:21;0.51;78.94
68378;DHT22;55322;48.146;11.516;2023-03-01T01:38:46;0.45;78.20
68378;DHT22;55322;48.146;11.516;2023-03-01T01:41:12;0.41;78.76
68378;DHT22;55322;48.146;11.516;2023-03-01T01:43:49;0.50;79.09
68378;DHT22;55322;48.146;11.516;2023-03-01T01:49:02;0.45;78.30
68378;DHT22;55322;48.146;11.516;2023-03-01T01:51:35;0.43;78.46
68378;DHT22;55322;48.146;11.516;2023-03-01T01:54:07;0.40;78.76
68378;DHT22;55322;48.146;11.516;2023-03-01T01:56:34;0.44;78.41
68378;DHT22;55322;48.146;11.516;2023-03-01T01:59:02;0.44;78.81
68378;DHT22;55322;48.146;11.516;2023-03-01T02:01:28;0.38;78.96
68378;DHT22;55322;48.146;11.516;2023-03-01T02:03:53;0.38;78.70
68378;DHT22;55322;48.146;11.516;2023-03-01T02:06:28;0.48;79.17
68378;DHT22;55322;48.146;11.516;2023-03-01T02:09:04;0.38;78.72
68378;DHT22;55322;48.146;11.516;2023-03-01T02:11:31;0.44;78.43
68378;DHT22;55322;48.146;11.516;2023-03-01T02:13:57;0.38;78.85
68378;DHT22;55322;48.146;11.516;2023-03-01T02:16:23;0.44;79.26
68378;DHT22;55322;48.146;11.516;2023-03-01T02:18:49;0.40;79.05
68378;DHT22;55322;48.146;11.516;2023-03-01T02:21:38;0.38;78.67
68378;DHT22;55322;48.146;11.516;2023-03-01T02:26:45;0.40;78.83
68378;DHT22;55322;48.146;11.516;2023-03-01T02:29:11;0.38;78.08
68378;DHT22;55322;48.146;11.516;2023-03-01T02:31:37;0.33;78.18
68378;DHT22;55322;48.146;11.516;2023-03-01T02:34:20;0.36;78.32
68378;DHT22;55322;48.146;11.516;2023-03-01T02:36:49;0.31;78.06
68378;DHT22;55322;48.146;11.516;2023-03-01T02:39:21;0.25;77.81
68378;DHT22;55322;48.146;11.516;2023-03-01T02:41:50;0.28;78.51
68378;DHT22;55322;48.146;11.516;2023-03-01T02:44:16;0.25;77.92
68378;DHT22;55322;48.146;11.516;2023-03-01T02:46:50;0.27;78.82
68378;DHT22;55322;48.146;11.516;2023-03-01T02:49:28;0.25;78.64
68378;DHT22;55322;48.146;11.516;2023-03-01T02:52:26;0.28;78.45
68378;DHT22;55322;48.146;11.516;2023-03-01T02:55:03;0.25;78.04
68378;DHT22;55322;48.146;11.516;2023-03-01T02:57:31;0.27;78.37
68378;DHT22;55322;48.146;11.516;2023-03-01T03:00:03;0.27;78.79
68378;DHT22;55322;48.146;11.516;2023-03-01T03:02:32;0.28;78.05
68378;DHT22;55322;48.146;11.516;2023-03-01T03:05:15;0.23;77.96
68378;DHT22;55322;48.146;11.516;2023-03-01T03:07:42;0.23;77.69
68378;DHT22;55322;48.146;11.516;2023-03-01T03:13:12;0.17;78.08
68378;DHT22;55322;48.146;11.516;2023-03-01T03:15:40;0.20;77.89
68378;DHT22;55322;48.146;11.516;2023-03-01T03:18:09;0.21;78.30
68378;DHT22;55322;48.146;11.516;2023-03-01T03:20:35;0.17;78.20
68378;DHT22;55322;48.146;11.516;2023-03-01T03:23:01;0.13;77.62
68378;DHT22;55322;48.146;11.516;2023-03-01T03:25:28;0.13;77.33
68378;DHT22;55322;48.146;11.516;2023-03-01T03:27:55;0.04;77.41
68378;DHT22;55322;48.146;11.516;2023-03-01T03:30:26;0.06;77.73
68378;DHT22;55322;48.146;11.516;2023-03-01T03:32:51;0.10;78.61
68378;DHT22;55322;48.146;11.516;2023-03-01T03:37:50;0.04;77.66
68378;DHT22;55322;48.146;11.516;2023-03-01T03:40:36;0.02;77.59
68378;DHT22;55322;48.146;11.516;2023-03-01T03:43:04;0.03;77.79
68378;DHT22;55322;48.146;11.516;2023-03-01T03:45:30;-0.01;77.39
68378;DHT22;55322;48.146;11.516;2023-03-01T03:47:58;-0.07;78.61
68378;DHT22;55322;48.146;11.516;2023-03-01T03:50:24;-0.08;78.67
68378;DHT22;55322;48.146;11.516;2023-03-01T03:52:49;-0.04;77.95
68378;DHT22;55322;48.146;11.516;2023-03-01T03:55:14;-0.07;78.34
68378;DHT22;55322;48.146;11.516;2023-03-01T03:57:44;-0.13;78.26
68378;DHT22;55322;48.146;11.516;2023-03-01T04:00:18;-0.10;78.14
68378;DHT22;55322;48.146;11.516;2023-03-01T04:02:44;-0.10;79.13
68378;DHT22;55322;48.146;11.516;2023-03-01T04:05:11;-0.07;77.76
68378;DHT22;55322;48.146;11.516;2023-03-01T04:07:37;-0.08;78.64
68378;DHT22;55322;48.146;11.516;2023-03-01T04:10:09;-0.14;77.77
68378;DHT22;55322;48.146;11.516;2023-03-01T04:12:35;-0.20;78.23
68378;DHT22;55322;48.146;11.516;2023-03-01T04:15:02;-0.17;78.05
68378;DHT22;55322;48.146;11.516;2023-03-01T04:17:38;-0.20;77.90
68378;DHT22;55322;48.146;11.516;2023-03-01T04:20:05;-0.22;77.85
68378;DHT22;55322;48.146;11.516;2023-03-01T04:22:30;-0.21;77.90
68378;DHT22;55322;48.146;11.516;2023-03-01T04:24:57;-0.15;78.72
68378;DHT22;55322;48.146;11.516;2023-03-01T04:27:22;-0.21;78.77
68378;DHT22;55322;48.146;11.516;2023-03-01T04:29:47;-0.25;77.87
68378;DHT22;55322;48.146;11.516;2023-03-01T04:32:13;-0.27;79.06
68378;DHT22;55322;48.146;11.516;2023-03-01T04:34:41;-0.22;79.17
68378;DHT22;55322;48.146;11.516;2023-03-01T04:37:06;-0.27;79.28
68378;DHT22;55322;48.146;11.516;2023-03-01T04:39:31;-0.25;79.11
68378;DHT22;55322;48.146;11.516;2023-03-01T04:41:57;-0.32;79.84
68378;DHT22;55322;48.146;11.516;2023-03-01T04:44:23;-0.31;79.18
68378;DHT22;55322;48.146;11.516;2023-03-01T04:46:49;-0.37;79.55
68378;DHT22;55322;48.146;11.516;2023-03-01T04:49:15;-0.37;79.98
68378;DHT22;55322;48.146;11.516;2023-03-01T04:51:41;-0.37;79.79
68378;DHT22;55322;48.146;11.516;2023-03-01T04:54:06;-0.44;79.60
68378;DHT22;55322;48.146;11.516;2023-03-01T04:56:34;-0.51;79.79
68378;DHT22;55322;48.146;11.516;2023-03-01T04:58:59;-0.57;80.31
68378;DHT22;55322;48.146;11.516;2023-03-01T05:01:25;-0.64;79.22
68378;DHT22;55322;48.146;11.516;2023-03-01T05:03:51;-0.62;79.39
68378;DHT22;55322;48.146;11.516;2023-03-01T05:06:18;-0.72;79.56
68378;DHT22;55322;48.146;11.516;2023-03-01T05:08:44;-0.73;80.14
68378;DHT22;55322;48.146;11.516;2023-03-01T05:11:10;-0.78;80.00
68378;DHT22;55322;48.146;11.516;2023-03-01T05:13:37;-0.79;80.47
68378;DHT22;55322;48.146;11.516;2023-03-01T05:16:03;-0.83;80.22
68378;DHT22;55322;48.146;11.516;2023-03-01T05:18:31;-0.79;80.38
68378;DHT22;55322;48.146;11.516;2023-03-01T05:21:09;-0.78;80.88
68378;DHT22;55322;48.146;11.516;2023-03-01T05:23:36;-0.86;80.13
68378;DHT22;55322;48.146;11.516;2023-03-01T05:26:03;-0.92;80.16
68378;DHT22;55322;48.146;11.516;2023-03-01T05:28:29;-0.92;81.01
68378;DHT22;55322;48.146;11.516;2023-03-01T05:30:55;-0.91;81.17
68378;DHT22;55322;48.146;11.516;2023-03-01T05:33:21;-0.91;80.50
68378;DHT22;55322;48.146;11.516;2023-03-01T05:35:47;-0.89;80.25
68378;DHT22;55322;48.146;11.516;2023-03-01T05:38:14;-0.97;80.26
68378;DHT22;55322;48.146;11.516;2023-03-01T05:40:41;-1.05;80.56
68378;DHT22;55322;48.146;11.516;2023-03-01T05:43:06;-1.05;80.66
68378;DHT22;55322;48.146;11.516;2023-03-01T05:45:32;-1.07;80.92
68378;DHT22;55322;48.146;11.516;2023-03-01T05:47:58;-0.99;80.52
68378;DHT22;55322;48.146;11.516;2023-03-01T05:50:26;-1.00;80.85
68378;DHT22;55322;48.146;11.516;2023-03-01T05:52:59;-1.02;80.41
68378;DHT22;55322;48.146;11.516;2023-03-01T05:55:25;-1.05;80.56
68378;DHT22;55322;48.146;11.516;2023-03-01T05:57:50;-0.99;81.38
68378;DHT22;55322;48.146;11.516;2023-03-01T06:00:17;-1.03;80.76
68378;DHT22;55322;48.146;11.516;2023-03-01T06:02:43;-1.03;80.76
68378;DHT22;55322;48.146;11.516;2023-03-01T06:05:10;-0.95;81.26
68378;DHT22;55322;48.146;11.516;2023-03-01T06:07:35;-0.96;81.52
68378;DHT22;55322;48.146;11.516;2023-03-01T06:10:02;-0.97;80.75
68378;DHT22;55322;48.146;11.516;2023-03-01T06:12:35;-1.07;80.61
68378;DHT22;55322;48.146;11.516;2023-03-01T06:15:01;-1.06;80.26
68378;DHT22;55322;48.146;11.516;2023-03-01T06:17:29;-1.07;80.67
68378;DHT22;55322;48.146;11.516;2023-03-01T06:19:54;-0.97;80.74
68378;DHT22;55322;48.146;11.516;2023-03-01T06:22:20;-1.03;80.18
68378;DHT22;55322;48.146;11.516;2023-03-01T06:24:45;-1.12;80.20
68378;DHT22;55322;48.146;11.516;2023-03-01T06:27:10;-1.05;80.33
68378;DHT22;55322;48.146;11.516;2023-03-01T06:29:36;-1.03;80.49
68378;DHT22;55322;48.146;11.516;2023-03-01T06:32:02;-1.05;80.12
68378;DHT22;55322;48.146;11.516;2023-03-01T06:34:28;-1.09;80.17
68378;DHT22;55322;48.146;11.516;2023-03-01T06:36:53;-1.00;80.49
68378;DHT22;55322;48.146;11.516;2023-03-01T06:39:18;-0.91;80.74
68378;DHT22;55322;48.146;11.516;2023-03-01T06:41:44;-0.88;80.13
68378;DHT22;55322;48.146;11.516;2023-03-01T06:44:10;-0.28;85.22
68378;DHT22;55322;48.146;11.516;2023-03-01T06:46:35;-0.01;77.68
68378;DHT22;55322;48.146;11.516;2023-03-01T06:49:00;-0.57;78.39
68378;DHT22;55322;48.146;11.516;2023-03-01T06:51:26;-0.81;79.27
68378;DHT22;55322;48.146;11.516;2023-03-01T06:53:51;-0.99;79.87
68378;DHT22;55322;48.146;11.516;2023-03-01T06:56:16;-0.95;80.88
68378;DHT22;55322;48.146;11.516;2023-03-01T06:58:42;-0.89;81.52
68378;DHT22;55322;48.146;11.516;2023-03-01T07:01:08;-0.89;79.92
68378;DHT22;55322;48.146;11.516;2023-03-01T07:03:34;-0.86;80.23
68378;DHT22;55322;48.146;11.516;2023-03-01T07:05:59;-0.88;79.89
68378;DHT22;55322;48.146;11.516;2023-03-01T07:08:25;-0.86;80.05
68378;DHT22;55322;48.146;11.516;2023-03-01T07:10:58;-0.76;80.50
68378;DHT22;55322;48.146;11.516;2023-03-01T07:13:24;-0.76;79.87
68378;DHT22;55322;48.146;11.516;2023-03-01T07:15:49;-0.71;79.38
68378;DHT22;55322;48.146;11.516;2023-03-01T07:18:15;-0.78;80.31
68378;DHT22;55322;48.146;11.516;2023-03-01T07:20:40;-0.78;79.48
68378;DHT22;55322;48.146;11.516;2023-03-01T07:23:06;-0.78;79.87
68378;DHT22;55322;48.146;11.516;2023-03-01T07:25:32;-0.73;80.24
68378;DHT22;55322;48.146;11.516;2023-03-01T07:27:58;-0.76;80.15
68378;DHT22;55322;48.146;11.516;2023-03-01T07:30:24;-0.73;79.16
68378;DHT22;55322;48.146;11.516;2023-03-01T07:32:51;-0.65;79.38
68378;DHT22;55322;48.146;11.516;2023-03-01T07:35:17;-0.76;79.84
68378;DHT22;55322;48.146;11.516;2023-03-01T07:37:43;-0.69;79.60
68378;DHT22;55322;48.146;11.516;2023-03-01T07:40:09;-0.64;79.28
68378;DHT22;55322;48.146;11.516;2023-03-01T07:42:34;-0.76;78.93
68378;DHT22;55322;48.146;11.516;2023-03-01T07:44:59;-0.75;79.20
68378;DHT22;55322;48.146;11.516;2023-03-01T07:47:25;-0.57;79.45
68378;DHT22;55322;48.146;11.516;2023-03-01T07:49:50;-0.55;79.03
68378;DHT22;55322;48.146;11.516;2023-03-01T07:52:15;-0.60;78.58
68378;DHT22;55322;48.146;11.516;2023-03-01T07:54:42;-0.57;78.73
68378;DHT22;55322;48.146;11.516;2023-03-01T07:57:09;-0.55;78.88
68378;DHT22;55322;48.146;11.516;2023-03-01T07:59:34;-0.44;78.46
68378;DHT22;55322;48.146;11.516;2023-03-01T08:02:00;-0.44;78.92
68378;DHT22;55322;48.146;11.516;2023-03-01T08:04:25;-0.54;78.29
68378;DHT22;55322;48.146;11.516;2023-03-01T08:06:52;-0.45;78.36
68378;DHT22;55322;48.146;11.516;2023-03-01T08:09:17;-0.41;78.39
68378;DHT22;55322;48.146;11.516;2023-03-01T08:11:43;-0.41;77.56
68378;DHT22;55322;48.146;11.516;2023-03-01T08:14:08;-0.48;77.74
68378;DHT22;55322;48.146;11.516;2023-03-01T08:16:34;-0.51;77.43
68378;DHT22;55322;48.146;11.516;2023-03-01T08:19:11;-0.54;77.40
68378;DHT22;55322;48.146;11.516;2023-03-01T08:21:36;-0.62;77.45
68378;DHT22;55322;48.146;11.516;2023-03-01T08:24:04;-0.54;77.65
68378;DHT22;55322;48.146;11.516;2023-03-01T08:26:31;-0.50;77.59
68378;DHT22;55322;48.146;11.516;2023-03-01T08:28:57;-0.38;77.17
68378;DHT22;55322;48.146;11.516;2023-03-01T08:31:37;-0.18;77.31
68378;DHT22;55322;48.146;11.516;2023-03-01T08:34:08;-0.24;76.68
68378;DHT22;55322;48.146;11.516;2023-03-01T08:36:39;-0.17;77.09
68378;DHT22;55322;48.146;11.516;2023-03-01T08:39:06;-0.08;76.33
68378;DHT22;55322;48.146;11.516;2023-03-01T08:41:31;-0.08;76.99
68378;DHT22;55322;48.146;11.516;2023-03-01T08:43:57;0.06;77.15
68378;DHT22;55322;48.146;11.516;2023-03-01T08:46:32;0.13;76.49
68378;DHT22;55322;48.146;11.516;2023-03-01T08:48:58;0.11;75.30
68378;DHT22;55322;48.146;11.516;2023-03-01T08:51:25;0.04;75.75
68378;DHT22;55322;48.146;11.516;2023-03-01T08:53:50;0.17;75.69
68378;DHT22;55322;48.146;11.516;2023-03-01T08:56:17;0.10;75.72
68378;DHT22;55322;48.146;11.516;2023-03-01T08:58:47;0.30;76.78
68378;DHT22;55322;48.146;11.516;2023-03-01T09:01:16;0.25;75.50
68378;DHT22;55322;48.146;11.516;2023-03-01T09:03:42;0.31;75.70
68378;DHT22;55322;48.146;11.516;2023-03-01T09:06:08;0.30;75.00
68378;DHT22;55322;48.146;11.516;2023-03-01T09:08:38;0.20;75.43
68378;DHT22;55322;48.146;11.516;2023-03-01T09:11:05;0.14;75.96
68378;DHT22;55322;48.146;11.516;2023-03-01T09:13:31;0.33;76.57
68378;DHT22;55322;48.146;11.516;2023-03-01T09:15:57;0.31;75.37
68378;DHT22;55322;48.146;11.516;2023-03-01T09:18:23;0.34;75.51
68378;DHT22;55322;48.146;11.516;2023-03-01T09:20:48;0.31;75.32
68378;DHT22;55322;48.146;11.516;2023-03-01T09:23:13;0.44;75.58
68378;DHT22;55322;48.146;11.516;2023-03-01T09:25:39;0.44;74.85
68378;DHT22;55322;48.146;11.516;2023-03-01T09:28:04;0.48;75.45
68378;DHT22;55322;48.146;11.516;2023-03-01T09:30:29;0.60;75.35
68378;DHT22;55322;48.146;11.516;2023-03-01T09:32:56;0.51;75.14
68378;DHT22;55322;48.146;11.516;2023-03-01T09:35:21;0.53;76.38
68378;DHT22;55322;48.146;11.516;2023-03-01T09:37:47;0.64;76.73
68378;DHT22;55322;48.146;11.516;2023-03-01T09:40:17;0.77;75.84
68378;DHT22;55322;48.146;11.516;2023-03-01T09:42:50;0.69;75.39
68378;DHT22;55322;48.146;11.516;2023-03-01T09:47:54;0.67;74.32
68378;DHT22;55322;48.146;11.516;2023-03-01T09:50:21;0.54;74.92
68378;DHT22;55322;48.146;11.516;2023-03-01T09:52:54;0.64;75.72
68378;DHT22;55322;48.146;11.516;2023-03-01T09:55:44;0.91;75.18
68378;DHT22;55322;48.146;11.516;2023-03-01T09:58:28;0.87;74.73
68378;DHT22;55322;48.146;11.516;2023-03-01T10:00:56;0.82;74.69
68378;DHT22;55322;48.146;11.516;2023-03-01T10:03:36;0.75;74.77
68378;DHT22;55322;48.146;11.516;2023-03-01T10:06:23;0.79;75.52
68378;DHT22;55322;48.146;11.516;2023-03-01T10:08:57;0.93;75.43
68378;DHT22;55322;48.146;11.516;2023-03-01T10:11:45;1.03;74.05
68378;DHT22;55322;48.146;11.516;2023-03-01T10:14:33;0.84;74.64
68378;DHT22;55322;48.146;11.516;2023-03-01T10:17:07;0.87;75.21
68378;DHT22;55322;48.146;11.516;2023-03-01T10:19:39;1.20;76.46
68378;DHT22;55322;48.146;11.516;2023-03-01T10:22:20;1.25;74.38
68378;DHT22;55322;48.146;11.516;2023-03-01T10:24:50;1.39;73.92
68378;DHT22;55322;48.146;11.516;2023-03-01T10:27:34;2.15;73.05
68378;DHT22;55322;48.146;11.516;2023-03-01T10:32:38;2.34;71.01
68378;DHT22;55322;48.146;11.516;2023-03-01T10:35:24;2.71;68.37
68378;DHT22;55322;48.146;11.516;2023-03-01T10:38:08;2.85;68.37
68378;DHT22;55322;48.146;11.516;2023-03-01T10:40:35;3.30;66.18
68378;DHT22;55322;48.146;11.516;2023-03-01T10:43:03;3.71;67.30
68378;DHT22;55322;48.146;11.516;2023-03-01T10:50:43;2.38;67.49
68378;DHT22;55322;48.146;11.516;2023-03-01T10:53:28;2.31;67.95
68378;DHT22;55322;48.146;11.516;2023-03-01T10:56:12;2.34;67.62
68378;DHT22;55322;48.146;11.516;2023-03-01T10:59:03;2.05;68.37
68378;DHT22;55322;48.146;11.516;2023-03-01T11:01:32;2.01;69.55
68378;DHT22;55322;48.146;11.516;2023-03-01T11:06:31;2.11;69.83
68378;DHT22;55322;48.146;11.516;2023-03-01T11:08:56;2.76;68.40
68378;DHT22;55322;48.146;11.516;2023-03-01T11:11:34;3.79;65.43
68378;DHT22;55322;48.146;11.516;2023-03-01T11:14:17;3.55;64.13
68378;DHT22;55322;48.146;11.516;2023-03-01T11:16:45;3.64;64.29
68378;DHT22;55322;48.146;11.516;2023-03-01T11:21:44;4.49;62.21
68378;DHT22;55322;48.146;11.516;2023-03-01T11:24:14;4.10;62.29
68378;DHT22;55322;48.146;11.516;2023-03-01T11:26:47;3.81;63.25
68378;DHT22;55322;48.146;11.516;2023-03-01T11:29:28;4.15;63.67
68378;DHT22;55322;48.146;11.516;2023-03-01T11:31:58;5.11;61.18
68378;DHT22;55322;48.146;11.516;2023-03-01T11:34:35;4.13;62.55
68378;DHT22;55322;48.146;11.516;2023-03-01T11:37:12;5.00;61.83
68378;DHT22;55322;48.146;11.516;2023-03-01T11:40:15;4.97;61.18
68378;DHT22;55322;48.146;11.516;2023-03-01T11:42:46;4.91;62.84
68378;DHT22;55322;48.146;11.516;2023-03-01T11:45:13;4.80;61.29
68378;DHT22;55322;48.146;11.516;2023-03-01T11:47:55;4.76;61.22
68378;DHT22;55322;48.146;11.516;2023-03-01T11:55:37;5.73;59.20
68378;DHT22;55322;48.146;11.516;2023-03-01T11:58:36;5.38;60.56
68378;DHT22;55322;48.146;11.516;2023-03-01T12:01:21;5.37;59.45
68378;DHT22;55322;48.146;11.516;2023-03-01T12:12:22;4.91;61.71
68378;DHT22;55322;48.146;11.516;2023-03-01T12:14:49;5.34;62.62
68378;DHT22;55322;48.146;11.516;2023-03-01T12:17:47;5.38;61.76
68378;DHT22;55322;48.146;11.516;2023-03-01T12:20:32;4.90;61.23
68378;DHT22;55322;48.146;11.516;2023-03-01T12:26:06;5.03;62.20
68378;DHT22;55322;48.146;11.516;2023-03-01T12:31:56;5.69;61.30
68378;DHT22;55322;48.146;11.516;2023-03-01T12:37:39;5.37;60.11
68378;DHT22;55322;48.146;11.516;2023-03-01T12:40:29;5.35;60.63
68378;DHT22;55322;48.146;11.516;2023-03-01T12:46:20;4.70;63.68
68378;DHT22;55322;48.146;11.516;2023-03-01T12:49:05;4.63;63.50
68378;DHT22;55322;48.146;11.516;2023-03-01T12:51:34;4.38;64.05
68378;DHT22;55322;48.146;11.516;2023-03-01T12:54:07;4.46;64.17
68378;DHT22;55322;48.146;11.516;2023-03-01T12:56:37;4.98;63.77
68378;DHT22;55322;48.146;11.516;2023-03-01T12:59:12;4.91;62.03
68378;DHT22;55322;48.146;11.516;2023-03-01T13:17:59;5.11;63.19
68378;DHT22;55322;48.146;11.516;2023-03-01T13:20:30;5.10;62.57
68378;DHT22;55322;48.146;11.516;2023-03-01T13:31:05;5.07;63.75
68378;DHT22;55322;48.146;11.516;2023-03-01T13:35:58;5.30;64.62
68378;DHT22;55322;48.146;11.516;2023-03-01T13:38:46;5.34;64.90
68378;DHT22;55322;48.146;11.516;2023-03-01T13:41:14;5.27;62.89
68378;DHT22;55322;48.146;11.516;2023-03-01T13:43:42;5.30;62.73
68378;DHT22;55322;48.146;11.516;2023-03-01T13:46:17;5.34;63.08
68378;DHT22;55322;48.146;11.516;2023-03-01T13:48:47;5.23;62.62
68378;DHT22;55322;48.146;11.516;2023-03-01T13:51:14;5.20;64.35
68378;DHT22;55322;48.146;11.516;2023-03-01T13:53:45;5.28;63.05
68378;DHT22;55322;48.146;11.516;2023-03-01T13:56:21;5.37;62.95
68378;DHT22;55322;48.146;11.516;2023-03-01T13:58:55;5.65;63.03
68378;DHT22;55322;48.146;11.516;2023-03-01T14:03:53;5.52;63.75
68378;DHT22;55322;48.146;11.516;2023-03-01T14:06:37;5.49;64.12
68378;DHT22;55322;48.146;11.516;2023-03-01T14:09:14;5.32;62.91
68378;DHT22;55322;48.146;11.516;2023-03-01T14:19:30;5.35;64.19
68378;DHT22;55322;48.146;11.516;2023-03-01T14:22:25;5.56;63.35
68378;DHT22;55322;48.146;11.516;2023-03-01T14:24:55;5.34;62.84
68378;DHT22;55322;48.146;11.516;2023-03-01T14:27:23;5.54;63.56
68378;DHT22;55322;48.146;11.516;2023-03-01T14:29:59;5.75;64.77
68378;DHT22;55322;48.146;11.516;2023-03-01T14:34:51;5.66;63.57
68378;DHT22;55322;48.146;11.516;2023-03-01T14:37:29;5.69;64.20
68378;DHT22;55322;48.146;11.516;2023-03-01T14:39:56;5.60;63.98
68378;DHT22;55322;48.146;11.516;2023-03-01T14:42:24;5.56;64.57
68378;DHT22;55322;48.146;11.516;2023-03-01T14:44:54;5.63;64.97
68378;DHT22;55322;48.146;11.516;2023-03-01T14:47:34;5.92;64.53
68378;DHT22;55322;48.146;11.516;2023-03-01T14:50:15;5.73;64.71
68378;DHT22;55322;48.146;11.516;2023-03-01T14:52:45;5.51;65.79
68378;DHT22;55322;48.146;11.516;2023-03-01T14:55:20;5.68;65.19
68378;DHT22;55322;48.146;11.516;2023-03-01T14:57:50;5.48;64.59
68378;DHT22;55322;48.146;11.516;2023-03-01T15:00:19;5.37;65.44
68378;DHT22;55322;48.146;11.516;2023-03-01T15:02:47;5.51;65.82
68378;DHT22;55322;48.146;11.516;2023-03-01T15:05:14;5.44;66.98
68378;DHT22;55322;48.146;11.516;2023-03-01T15:07:42;5.48;65.61
68378;DHT22;55322;48.146;11.516;2023-03-01T15:10:23;5.55;65.34
68378;DHT22;55322;48.146;11.516;2023-03-01T15:12:48;5.62;64.45
68378;DHT22;55322;48.146;11.516;2023-03-01T15:15:36;5.68;65.58
68378;DHT22;55322;48.146;11.516;2023-03-01T15:18:14;5.72;66.37
68378;DHT22;55322;48.146;11.516;2023-03-01T15:20:40;5.51;66.17
68378;DHT22;55322;48.146;11.516;2023-03-01T15:23:20;5.49;65.42
68378;DHT22;55322;48.146;11.516;2023-03-01T15:25:47;5.56;65.47
68378;DHT22;55322;48.146;11.516;2023-03-01T15:28:20;5.42;66.56
68378;DHT22;55322;48.146;11.516;2023-03-01T15:30:52;5.56;66.46
68378;DHT22;55322;48.146;11.516;2023-03-01T15:33:31;5.58;65.42
68378;DHT22;55322;48.146;11.516;2023-03-01T15:35:59;5.58;65.14
68378;DHT22;55322;48.146;11.516;2023-03-01T15:38:33;5.60;65.20
68378;DHT22;55322;48.146;11.516;2023-03-01T15:41:05;5.63;65.58
68378;DHT22;55322;48.146;11.516;2023-03-01T15:43:57;5.72;65.61
68378;DHT22;55322;48.146;11.516;2023-03-01T15:46:31;5.68;66.25
68378;DHT22;55322;48.146;11.516;2023-03-01T15:49:01;5.63;66.19
68378;DHT22;55322;48.146;11.516;2023-03-01T15:51:33;5.62;66.25
68378;DHT22;55322;48.146;11.516;2023-03-01T15:54:02;5.69;66.30
68378;DHT22;55322;48.146;11.516;2023-03-01T15:56:28;5.68;66.21
68378;DHT22;55322;48.146;11.516;2023-03-01T15:58:58;5.73;65.97
68378;DHT22;55322;48.146;11.516;2023-03-01T16:01:24;5.68;66.46
68378;DHT22;55322;48.146;11.516;2023-03-01T16:03:49;5.63;66.60
68378;DHT22;55322;48.146;11.516;2023-03-01T16:06:15;5.63;66.75
68378;DHT22;55322;48.146;11.516;2023-03-01T16:08:40;5.56;67.66
68378;DHT22;55322;48.146;11.516;2023-03-01T16:11:17;5.47;68.81
68378;DHT22;55322;48.146;11.516;2023-03-01T16:13:43;5.55;67.53
68378;DHT22;55322;48.146;11.516;2023-03-01T16:16:12;5.49;68.16
68378;DHT22;55322;48.146;11.516;2023-03-01T16:18:41;5.55;67.52
68378;DHT22;55322;48.146;11.516;2023-03-01T16:21:11;5.49;68.12
68378;DHT22;55322;48.146;11.516;2023-03-01T16:23:36;5.55;68.05
68378;DHT22;55322;48.146;11.516;2023-03-01T16:26:02;5.47;68.69
68378;DHT22;55322;48.146;11.516;2023-03-01T16:28:27;5.42;68.36
68378;DHT22;55322;48.146;11.516;2023-03-01T16:30:52;5.31;69.45
68378;DHT22;55322;48.146;11.516;2023-03-01T16:33:18;5.18;69.84
68378;DHT22;55322;48.146;11.516;2023-03-01T16:35:43;5.25;69.57
68378;DHT22;55322;48.146;11.516;2023-03-01T16:38:09;5.14;70.33
68378;DHT22;55322;48.146;11.516;2023-03-01T16:40:35;5.31;69.42
68378;DHT22;55322;48.146;11.516;2023-03-01T16:43:00;5.23;69.97
68378;DHT22;55322;48.146;11.516;2023-03-01T16:45:28;5.14;70.13
68378;DHT22;55322;48.146;11.516;2023-03-01T16:47:53;4.94;71.01
68378;DHT22;55322;48.146;11.516;2023-03-01T16:50:19;4.79;72.15
68378;DHT22;55322;48.146;11.516;2023-03-01T16:52:44;4.85;71.18
68378;DHT22;55322;48.146;11.516;2023-03-01T16:55:10;4.90;71.10
68378;DHT22;55322;48.146;11.516;2023-03-01T16:57:39;4.90;71.25
68378;DHT22;55322;48.146;11.516;2023-03-01T17:00:08;4.97;71.26
68378;DHT22;55322;48.146;11.516;2023-03-01T17:02:38;4.83;71.46
68378;DHT22;55322;48.146;11.516;2023-03-01T17:05:04;4.67;72.16
68378;DHT22;55322;48.146;11.516;2023-03-01T17:07:31;4.49;72.90
68378;DHT22;55322;48.146;11.516;2023-03-01T17:10:04;4.29;74.13
68378;DHT22;55322;48.146;11.516;2023-03-01T17:12:29;4.23;73.65